sensor_id;sensor_type;location;lat;lon;timestamp;pressure;altitude;pressure_sealevel;temperature;humidity
35519;BME280;21627;48.216;16.482;2024-02-23T00:01:01;97820.97;;;8.56;100.00
35519;BME280;21627;48.216;16.482;2024-02-23T00:03:28;97824.34;;;8.59;100.00
35519;BME280;21627;48.216;16.482;2024-02-23T00:05:55;97806.41;;;8.55;100.00
35519;BME280;21627;48.216;16.482;2024-02-23T00:08:22;97812.28;;;8.60;100.00
35519;BME280;21627;48.216;16.482;2024-02-23T00:10:50;97803.84;;;8.53;100.00
35519;BME280;21627;48.216;16.482;2024-02-23T00:13:17;97809.00;;;8.53;100.00
35519;BME280;21627;48.216;16.482;2024-02-23T00:15:44;97804.78;;;8.49;100.00
35519;BME280;21627;48.216;16.482;2024-02-23T00:18:11;97809.06;;;8.52;100.00
35519;BME280;21627;48.216;16.482;2024-02-23T00:20:40;97810.75;;;8.51;100.00
35519;BME280;21627;48.216;16.482;2024-02-23T00:23:07;97815.09;;;8.49;100.00
35519;BME280;21627;48.216;16.482;2024-02-23T00:25:34;97804.94;;;8.44;100.00
35519;BME280;21627;48.216;16.482;2024-02-23T00:28:01;97808.28;;;8.47;100.00
35519;BME280;21627;48.216;16.482;2024-02-23T00:30:28;97802.38;;;8.43;100.00
35519;BME280;21627;48.216;16.482;2024-02-23T00:32:55;97792.91;;;8.43;100.00
35519;BME280;21627;48.216;16.482;2024-02-23T00:35:22;97800.63;;;8.45;100.00
35519;BME280;21627;48.216;16.482;2024-02-23T00:37:50;97805.75;;;8.45;100.00
35519;BME280;21627;48.216;16.482;2024-02-23T00:40:17;97804.06;;;8.44;100.00
35519;BME280;21627;48.216;16.482;2024-02-23T00:42:44;97798.19;;;8.37;100.00
35519;BME280;21627;48.216;16.482;2024-02-23T00:45:11;97791.31;;;8.36;100.00
35519;BME280;21627;48.216;16.482;2024-02-23T00:47:38;97799.03;;;8.36;100.00
35519;BME280;21627;48.216;16.482;2024-02-23T00:50:06;97795.69;;;8.33;100.00
35519;BME280;21627;48.216;16.482;2024-02-23T00:52:33;97794.03;;;8.32;100.00
35519;BME280;21627;48.216;16.482;2024-02-23T00:55:01;97798.34;;;8.30;100.00
35519;BME280;21627;48.216;16.482;2024-02-23T00:57:29;97793.22;;;8.28;100.00
35519;BME280;21627;48.216;16.482;2024-02-23T00:59:57;97801.00;;;8.27;100.00
35519;BME280;21627;48.216;16.482;2024-02-23T01:02:24;97792.47;;;8.24;100.00
35519;BME280;21627;48.216;16.482;2024-02-23T01:04:51;97795.91;;;8.23;100.00
35519;BME280;21627;48.216;16.482;2024-02-23T01:07:24;97793.31;;;8.23;100.00
35519;BME280;21627;48.216;16.482;2024-02-23T01:09:52;97789.06;;;8.22;100.00
35519;BME280;21627;48.216;16.482;2024-02-23T01:12:19;97796.88;;;8.19;100.00
35519;BME280;21627;48.216;16.482;2024-02-23T01:14:46;97801.91;;;8.24;100.00
35519;BME280;21627;48.216;16.482;2024-02-23T01:17:15;97799.38;;;8.22;100.00
35519;BME280;21627;48.216;16.482;2024-02-23T01:19:43;97799.38;;;8.22;100.00
35519;BME280;21627;48.216;16.482;2024-02-23T01:22:11;97792.56;;;8.20;100.00
35519;BME280;21627;48.216;16.482;2024-02-23T01:24:38;97794.22;;;8.22;100.00
35519;BME280;21627;48.216;16.482;2024-02-23T01:27:06;97790.00;;;8.18;100.00
35519;BME280;21627;48.216;16.482;2024-02-23T01:29:33;97790.91;;;8.16;100.00
35519;BME280;21627;48.216;16.482;2024-02-23T01:32:01;97780.78;;;8.10;100.00
35519;BME280;21627;48.216;16.482;2024-02-23T01:34:28;97785.88;;;8.11;100.00
35519;BME280;21627;48.216;16.482;2024-02-23T01:36:55;97783.44;;;8.05;100.00
35519;BME280;21627;48.216;16.482;2024-02-23T01:39:22;97794.47;;;8.10;100.00
35519;BME280;21627;48.216;16.482;2024-02-23T01:41:50;97789.34;;;8.10;100.00
35519;BME280;21627;48.216;16.482;2024-02-23T01:44:17;97797.06;;;8.10;100.00
35519;BME280;21627;48.216;16.482;2024-02-23T01:46:45;97802.84;;;8.20;100.00
35519;BME280;21627;48.216;16.482;2024-02-23T01:49:12;97785.03;;;8.11;100.00
35519;BME280;21627;48.216;16.482;2024-02-23T01:51:40;97787.69;;;8.06;100.00
35519;BME280;21627;48.216;16.482;2024-02-23T01:54:08;97786.00;;;8.05;100.00
35519;BME280;21627;48.216;16.482;2024-02-23T01:56:37;97778.38;;;8.02;100.00
35519;BME280;21627;48.216;16.482;2024-02-23T01:59:07;97779.22;;;8.01;100.00
35519;BME280;21627;48.216;16.482;2024-02-23T02:01:36;97787.75;;;8.05;100.00
35519;BME280;21627;48.216;16.482;2024-02-23T02:04:03;97788.56;;;8.07;100.00
35519;BME280;21627;48.216;16.482;2024-02-23T02:06:31;97786.09;;;8.02;100.00
35519;BME280;21627;48.216;16.482;2024-02-23T02:08:58;97789.59;;;7.98;100.00
35519;BME280;21627;48.216;16.482;2024-02-23T02:11:25;97783.75;;;7.91;100.00
35519;BME280;21627;48.216;16.482;2024-02-23T02:13:52;97782.94;;;7.88;100.00
35519;BME280;21627;48.216;16.482;2024-02-23T02:16:19;97781.19;;;7.90;100.00
35519;BME280;21627;48.216;16.482;2024-02-23T02:18:46;97782.00;;;7.92;100.00
35519;BME280;21627;48.216;16.482;2024-02-23T02:21:14;97784.69;;;7.87;100.00
35519;BME280;21627;48.216;16.482;2024-02-23T02:23:41;97781.25;;;7.87;100.00
35519;BME280;21627;48.216;16.482;2024-02-23T02:26:09;97790.72;;;7.86;100.00
35519;BME280;21627;48.216;16.482;2024-02-23T02:28:36;97795.03;;;7.84;100.00
35519;BME280;21627;48.216;16.482;2024-02-23T02:31:03;97799.22;;;7.88;100.00
35519;BME280;21627;48.216;16.482;2024-02-23T02:33:30;97796.81;;;7.80;100.00
35519;BME280;21627;48.216;16.482;2024-02-23T02:35:57;97813.16;;;7.78;100.00
35519;BME280;21627;48.216;16.482;2024-02-23T02:38:24;97817.41;;;7.80;100.00
35519;BME280;21627;48.216;16.482;2024-02-23T02:40:52;97815.72;;;7.79;100.00
35519;BME280;21627;48.216;16.482;2024-02-23T02:43:19;97810.63;;;7.76;100.00
35519;BME280;21627;48.216;16.482;2024-02-23T02:45:46;97808.16;;;7.72;100.00
35519;BME280;21627;48.216;16.482;2024-02-23T02:48:13;97824.34;;;7.75;100.00
35519;BME280;21627;48.216;16.482;2024-02-23T02:50:41;97817.53;;;7.73;100.00
35519;BME280;21627;48.216;16.482;2024-02-23T02:53:08;97829.56;;;7.74;100.00
35519;BME280;21627;48.216;16.482;2024-02-23T02:55:36;97827.84;;;7.73;100.00
35519;BME280;21627;48.216;16.482;2024-02-23T02:58:03;97833.88;;;7.72;100.00
35519;BME280;21627;48.216;16.482;2024-02-23T03:00:30;97839.88;;;7.71;100.00
35519;BME280;21627;48.216;16.482;2024-02-23T03:02:58;97848.41;;;7.73;100.00
35519;BME280;21627;48.216;16.482;2024-02-23T03:05:25;97854.44;;;7.72;100.00
35519;BME280;21627;48.216;16.482;2024-02-23T03:07:53;97857.94;;;7.68;100.00
35519;BME280;21627;48.216;16.482;2024-02-23T03:10:20;97863.16;;;7.63;100.00
35519;BME280;21627;48.216;16.482;2024-02-23T03:12:47;97861.56;;;7.59;100.00
35519;BME280;21627;48.216;16.482;2024-02-23T03:15:14;97866.72;;;7.57;100.00
35519;BME280;21627;48.216;16.482;2024-02-23T03:17:42;97862.47;;;7.55;100.00
35519;BME280;21627;48.216;16.482;2024-02-23T03:20:11;97861.63;;;7.54;100.00
35519;BME280;21627;48.216;16.482;2024-02-23T03:22:38;97869.34;;;7.54;100.00
35519;BME280;21627;48.216;16.482;2024-02-23T03:25:06;97870.25;;;7.52;100.00
35519;BME280;21627;48.216;16.482;2024-02-23T03:27:37;97866.84;;;7.50;100.00
35519;BME280;21627;48.216;16.482;2024-02-23T03:30:05;97876.22;;;7.52;100.00
35519;BME280;21627;48.216;16.482;2024-02-23T03:32:35;97873.72;;;7.49;100.00
35519;BME280;21627;48.216;16.482;2024-02-23T03:35:07;97869.56;;;7.44;100.00
35519;BME280;21627;48.216;16.482;2024-02-23T03:37:35;97866.16;;;7.42;100.00
35519;BME280;21627;48.216;16.482;2024-02-23T03:40:03;97875.53;;;7.43;100.00
35519;BME280;21627;48.216;16.482;2024-02-23T03:42:31;97884.09;;;7.45;100.00
35519;BME280;21627;48.216;16.482;2024-02-23T03:44:59;97903.78;;;7.46;100.00
35519;BME280;21627;48.216;16.482;2024-02-23T03:47:26;97913.19;;;7.47;100.00
35519;BME280;21627;48.216;16.482;2024-02-23T03:49:53;97930.31;;;7.48;100.00
35519;BME280;21627;48.216;16.482;2024-02-23T03:52:20;97958.59;;;7.48;100.00
35519;BME280;21627;48.216;16.482;2024-02-23T03:54:47;97974.13;;;7.42;100.00
35519;BME280;21627;48.216;16.482;2024-02-23T03:57:14;97978.34;;;7.46;100.00
35519;BME280;21627;48.216;16.482;2024-02-23T03:59:52;97992.16;;;7.40;100.00
35519;BME280;21627;48.216;16.482;2024-02-23T04:02:20;97998.13;;;7.42;100.00
35519;BME280;21627;48.216;16.482;2024-02-23T04:04:48;97996.56;;;7.33;100.00
35519;BME280;21627;48.216;16.482;2024-02-23T04:07:15;98005.19;;;7.29;100.00
35519;BME280;21627;48.216;16.482;2024-02-23T04:09:42;98012.94;;;7.25;100.00
35519;BME280;21627;48.216;16.482;2024-02-23T04:12:09;98030.16;;;7.21;100.00
35519;BME280;21627;48.216;16.482;2024-02-23T04:14:36;98068.66;;;7.24;100.00
35519;BME280;21627;48.216;16.482;2024-02-23T04:17:04;98072.91;;;7.27;100.00
35519;BME280;21627;48.216;16.482;2024-02-23T04:19:31;98077.16;;;7.29;100.00
35519;BME280;21627;48.216;16.482;2024-02-23T04:21:58;98078.00;;;7.31;100.00
35519;BME280;21627;48.216;16.482;2024-02-23T04:24:25;98076.25;;;7.32;100.00
35519;BME280;21627;48.216;16.482;2024-02-23T04:26:53;98076.09;;;7.43;100.00
35519;BME280;21627;48.216;16.482;2024-02-23T04:29:20;98084.69;;;7.42;100.00
35519;BME280;21627;48.216;16.482;2024-02-23T04:31:47;98075.31;;;7.39;100.00
35519;BME280;21627;48.216;16.482;2024-02-23T04:34:17;98089.00;;;7.40;100.00
35519;BME280;21627;48.216;16.482;2024-02-23T04:36:45;98092.44;;;7.40;100.00
35519;BME280;21627;48.216;16.482;2024-02-23T04:39:12;98079.59;;;7.39;100.00
35519;BME280;21627;48.216;16.482;2024-02-23T04:41:39;98092.47;;;7.37;100.00
35519;BME280;21627;48.216;16.482;2024-02-23T04:44:06;98087.28;;;7.40;100.00
35519;BME280;21627;48.216;16.482;2024-02-23T04:46:33;98079.56;;;7.42;100.00
35519;BME280;21627;48.216;16.482;2024-02-23T04:49:01;98099.25;;;7.43;100.00
35519;BME280;21627;48.216;16.482;2024-02-23T04:51:29;98105.31;;;7.39;100.00
35519;BME280;21627;48.216;16.482;2024-02-23T04:53:56;98090.78;;;7.36;100.00
35519;BME280;21627;48.216;16.482;2024-02-23T04:56:23;98102.66;;;7.46;100.00
35519;BME280;21627;48.216;16.482;2024-02-23T04:58:51;98104.38;;;7.43;100.00
35519;BME280;21627;48.216;16.482;2024-02-23T05:01:18;98097.56;;;7.42;100.00
35519;BME280;21627;48.216;16.482;2024-02-23T05:03:46;98116.25;;;7.53;100.00
35519;BME280;21627;48.216;16.482;2024-02-23T05:06:13;98112.16;;;7.41;100.00
35519;BME280;21627;48.216;16.482;2024-02-23T05:08:41;98110.47;;;7.39;100.00
35519;BME280;21627;48.216;16.482;2024-02-23T05:11:09;98116.50;;;7.34;100.00
35519;BME280;21627;48.216;16.482;2024-02-23T05:13:36;98113.78;;;7.47;100.00
35519;BME280;21627;48.216;16.482;2024-02-23T05:16:06;98111.25;;;7.41;100.00
35519;BME280;21627;48.216;16.482;2024-02-23T05:18:33;98113.94;;;7.34;100.00
35519;BME280;21627;48.216;16.482;2024-02-23T05:21:01;98118.81;;;7.53;100.00
35519;BME280;21627;48.216;16.482;2024-02-23T05:23:28;98128.19;;;7.57;100.00
35519;BME280;21627;48.216;16.482;2024-02-23T05:25:55;98128.34;;;7.46;100.00
35519;BME280;21627;48.216;16.482;2024-02-23T05:28:23;98130.03;;;7.49;100.00
35519;BME280;21627;48.216;16.482;2024-02-23T05:30:51;98122.28;;;7.50;100.00
35519;BME280;21627;48.216;16.482;2024-02-23T05:33:18;98132.56;;;7.50;100.00
35519;BME280;21627;48.216;16.482;2024-02-23T05:35:47;98130.84;;;7.51;100.00
35519;BME280;21627;48.216;16.482;2024-02-23T05:38:17;98133.50;;;7.45;100.00
35519;BME280;21627;48.216;16.482;2024-02-23T05:40:44;98141.91;;;7.57;100.00
35519;BME280;21627;48.216;16.482;2024-02-23T05:43:12;98152.13;;;7.62;100.00
35519;BME280;21627;48.216;16.482;2024-02-23T05:45:39;98155.66;;;7.56;100.00
35519;BME280;21627;48.216;16.482;2024-02-23T05:48:07;98165.06;;;7.57;100.00
35519;BME280;21627;48.216;16.482;2024-02-23T05:50:34;98154.81;;;7.56;100.00
35519;BME280;21627;48.216;16.482;2024-02-23T05:53:01;98155.66;;;7.56;100.00
35519;BME280;21627;48.216;16.482;2024-02-23T05:55:31;98168.50;;;7.56;100.00
35519;BME280;21627;48.216;16.482;2024-02-23T05:57:59;98178.81;;;7.55;100.00
35519;BME280;21627;48.216;16.482;2024-02-23T06:00:26;98175.50;;;7.47;100.00
35519;BME280;21627;48.216;16.482;2024-02-23T06:02:53;98177.22;;;7.46;100.00
35519;BME280;21627;48.216;16.482;2024-02-23T06:05:20;98182.41;;;7.42;100.00
35519;BME280;21627;48.216;16.482;2024-02-23T06:07:47;98188.41;;;7.42;100.00
35519;BME280;21627;48.216;16.482;2024-02-23T06:10:15;98190.16;;;7.39;100.00
35519;BME280;21627;48.216;16.482;2024-02-23T06:15:31;98203.03;;;7.39;100.00
35519;BME280;21627;48.216;16.482;2024-02-23T06:17:58;98210.66;;;7.43;100.00
35519;BME280;21627;48.216;16.482;2024-02-23T06:20:25;98210.59;;;7.48;100.00
35519;BME280;21627;48.216;16.482;2024-02-23T06:22:52;98214.13;;;7.41;100.00
35519;BME280;21627;48.216;16.482;2024-02-23T06:25:20;98214.25;;;7.31;100.00
35519;BME280;21627;48.216;16.482;2024-02-23T06:27:47;98219.44;;;7.28;100.00
35519;BME280;21627;48.216;16.482;2024-02-23T06:30:14;98209.16;;;7.27;100.00
35519;BME280;21627;48.216;16.482;2024-02-23T06:32:41;98209.13;;;7.30;100.00
35519;BME280;21627;48.216;16.482;2024-02-23T06:35:10;98207.38;;;7.33;100.00
35519;BME280;21627;48.216;16.482;2024-02-23T06:37:39;98215.91;;;7.35;100.00
35519;BME280;21627;48.216;16.482;2024-02-23T06:40:07;98219.31;;;7.37;100.00
35519;BME280;21627;48.216;16.482;2024-02-23T06:42:34;98237.25;;;7.42;100.00
35519;BME280;21627;48.216;16.482;2024-02-23T06:45:01;98234.44;;;7.62;100.00
35519;BME280;21627;48.216;16.482;2024-02-23T06:47:28;98235.47;;;7.49;100.00
35519;BME280;21627;48.216;16.482;2024-02-23T06:49:55;98242.41;;;7.42;100.00
35519;BME280;21627;48.216;16.482;2024-02-23T06:52:23;98251.72;;;7.51;100.00
35519;BME280;21627;48.216;16.482;2024-02-23T06:54:50;98242.50;;;7.34;100.00
35519;BME280;21627;48.216;16.482;2024-02-23T06:57:17;98252.72;;;7.39;100.00
35519;BME280;21627;48.216;16.482;2024-02-23T06:59:44;98251.97;;;7.29;100.00
35519;BME280;21627;48.216;16.482;2024-02-23T07:02:11;98253.69;;;7.27;100.00
35519;BME280;21627;48.216;16.482;2024-02-23T07:04:39;98259.72;;;7.26;100.00
35519;BME280;21627;48.216;16.482;2024-02-23T07:07:06;98260.56;;;7.27;100.00
35519;BME280;21627;48.216;16.482;2024-02-23T07:09:36;98256.22;;;7.30;100.00
35519;BME280;21627;48.216;16.482;2024-02-23T07:12:04;98246.03;;;7.26;100.00
35519;BME280;21627;48.216;16.482;2024-02-23T07:14:32;98251.09;;;7.32;100.00
35519;BME280;21627;48.216;16.482;2024-02-23T07:16:59;98263.78;;;7.46;100.00
35519;BME280;21627;48.216;16.482;2024-02-23T07:19:26;98276.63;;;7.46;100.00
35519;BME280;21627;48.216;16.482;2024-02-23T07:21:53;98273.16;;;7.48;100.00
35519;BME280;21627;48.216;16.482;2024-02-23T07:24:20;98280.88;;;7.50;100.00
35519;BME280;21627;48.216;16.482;2024-02-23T07:26:47;98276.63;;;7.49;100.00
35519;BME280;21627;48.216;16.482;2024-02-23T07:29:14;98287.72;;;7.54;100.00
35519;BME280;21627;48.216;16.482;2024-02-23T07:31:45;98300.38;;;7.68;100.00
35519;BME280;21627;48.216;16.482;2024-02-23T07:34:12;98307.25;;;7.69;100.00
35519;BME280;21627;48.216;16.482;2024-02-23T07:36:39;98308.94;;;7.68;100.00
35519;BME280;21627;48.216;16.482;2024-02-23T07:39:06;98319.19;;;7.74;100.00
35519;BME280;21627;48.216;16.482;2024-02-23T07:41:33;98313.28;;;7.66;100.00
35519;BME280;21627;48.216;16.482;2024-02-23T07:44:00;98320.13;;;7.67;100.00
35519;BME280;21627;48.216;16.482;2024-02-23T07:46:27;98330.47;;;7.64;100.00
35519;BME280;21627;48.216;16.482;2024-02-23T07:48:55;98345.75;;;7.73;100.00
35519;BME280;21627;48.216;16.482;2024-02-23T07:51:22;98348.38;;;7.72;100.00
35519;BME280;21627;48.216;16.482;2024-02-23T07:53:50;98348.34;;;7.75;100.00
35519;BME280;21627;48.216;16.482;2024-02-23T07:56:17;98342.34;;;7.74;100.00
35519;BME280;21627;48.216;16.482;2024-02-23T07:58:44;98342.41;;;7.68;100.00
35519;BME280;21627;48.216;16.482;2024-02-23T08:01:11;98345.00;;;7.65;100.00
35519;BME280;21627;48.216;16.482;2024-02-23T08:03:38;98346.78;;;7.60;100.00
35519;BME280;21627;48.216;16.482;2024-02-23T08:06:08;98361.31;;;7.63;100.00
35519;BME280;21627;48.216;16.482;2024-02-23T08:08:35;98360.47;;;7.64;100.00
35519;BME280;21627;48.216;16.482;2024-02-23T08:11:03;98361.38;;;7.61;100.00
35519;BME280;21627;48.216;16.482;2024-02-23T08:13:31;98363.84;;;7.67;100.00
35519;BME280;21627;48.216;16.482;2024-02-23T08:15:58;98364.75;;;7.63;100.00
35519;BME280;21627;48.216;16.482;2024-02-23T08:18:25;98369.09;;;7.61;100.00
35519;BME280;21627;48.216;16.482;2024-02-23T08:20:54;98378.56;;;7.54;100.00
35519;BME280;21627;48.216;16.482;2024-02-23T08:23:21;98393.16;;;7.54;100.00
35519;BME280;21627;48.216;16.482;2024-02-23T08:25:50;98377.81;;;7.46;100.00
35519;BME280;21627;48.216;16.482;2024-02-23T08:28:17;98394.03;;;7.51;100.00
35519;BME280;21627;48.216;16.482;2024-02-23T08:30:44;98392.31;;;7.50;100.00
35519;BME280;21627;48.216;16.482;2024-02-23T08:33:11;98381.19;;;7.48;100.00
35519;BME280;21627;48.216;16.482;2024-02-23T08:35:39;98394.00;;;7.53;100.00
35519;BME280;21627;48.216;16.482;2024-02-23T08:38:06;98396.50;;;7.64;100.00
35519;BME280;21627;48.216;16.482;2024-02-23T08:40:34;98399.06;;;7.64;100.00
35519;BME280;21627;48.216;16.482;2024-02-23T08:43:02;98411.06;;;7.63;100.00
35519;BME280;21627;48.216;16.482;2024-02-23T08:45:29;98410.97;;;7.72;100.00
35519;BME280;21627;48.216;16.482;2024-02-23T08:47:57;98418.69;;;7.72;100.00
35519;BME280;21627;48.216;16.482;2024-02-23T08:50:24;98431.50;;;7.75;100.00
35519;BME280;21627;48.216;16.482;2024-02-23T08:52:51;98422.94;;;7.73;100.00
35519;BME280;21627;48.216;16.482;2024-02-23T08:55:21;98413.50;;;7.77;100.00
35519;BME280;21627;48.216;16.482;2024-02-23T08:57:48;98421.19;;;7.78;100.00
35519;BME280;21627;48.216;16.482;2024-02-23T09:00:16;98415.19;;;7.79;100.00
35519;BME280;21627;48.216;16.482;2024-02-23T09:02:44;98415.09;;;7.86;100.00
35519;BME280;21627;48.216;16.482;2024-02-23T09:05:11;98412.44;;;7.93;100.00
35519;BME280;21627;48.216;16.482;2024-02-23T09:07:39;98427.00;;;7.97;100.00
35519;BME280;21627;48.216;16.482;2024-02-23T09:10:07;98427.78;;;8.04;100.00
35519;BME280;21627;48.216;16.482;2024-02-23T09:12:34;98419.28;;;7.99;100.00
35519;BME280;21627;48.216;16.482;2024-02-23T09:15:01;98426.03;;;8.08;100.00
35519;BME280;21627;48.216;16.482;2024-02-23T09:17:29;98422.56;;;8.12;100.00
35519;BME280;21627;48.216;16.482;2024-02-23T09:19:56;98437.06;;;8.19;100.00
35519;BME280;21627;48.216;16.482;2024-02-23T09:22:24;98431.09;;;8.17;100.00
35519;BME280;21627;48.216;16.482;2024-02-23T09:24:51;98432.84;;;8.12;100.00
35519;BME280;21627;48.216;16.482;2024-02-23T09:27:20;98443.06;;;8.16;100.00
35519;BME280;21627;48.216;16.482;2024-02-23T09:29:48;98443.91;;;8.18;100.00
35519;BME280;21627;48.216;16.482;2024-02-23T09:32:15;98452.44;;;8.23;100.00
35519;BME280;21627;48.216;16.482;2024-02-23T09:34:42;98454.16;;;8.24;100.00
35519;BME280;21627;48.216;16.482;2024-02-23T09:37:10;98447.25;;;8.28;100.00
35519;BME280;21627;48.216;16.482;2024-02-23T09:39:37;98451.53;;;8.29;100.00
35519;BME280;21627;48.216;16.482;2024-02-23T09:42:09;98454.94;;;8.31;100.00
35519;BME280;21627;48.216;16.482;2024-02-23T09:44:37;98472.03;;;8.40;100.00
35519;BME280;21627;48.216;16.482;2024-02-23T09:47:07;98482.28;;;8.44;100.00
35519;BME280;21627;48.216;16.482;2024-02-23T09:49:39;98474.56;;;8.44;100.00
35519;BME280;21627;48.216;16.482;2024-02-23T09:52:10;98463.44;;;8.41;100.00
35519;BME280;21627;48.216;16.482;2024-02-23T09:54:38;98470.13;;;8.57;100.00
35519;BME280;21627;48.216;16.482;2024-02-23T09:57:08;98469.31;;;8.52;100.00
35519;BME280;21627;48.216;16.482;2024-02-23T09:59:36;98462.50;;;8.47;100.00
35519;BME280;21627;48.216;16.482;2024-02-23T10:02:09;98459.91;;;8.48;100.00
35519;BME280;21627;48.216;16.482;2024-02-23T10:04:40;98459.91;;;8.48;100.00
35519;BME280;21627;48.216;16.482;2024-02-23T10:07:08;98456.44;;;8.51;100.00
35519;BME280;21627;48.216;16.482;2024-02-23T10:09:36;98462.53;;;8.45;100.00
35519;BME280;21627;48.216;16.482;2024-02-23T10:12:04;98450.59;;;8.39;100.00
35519;BME280;21627;48.216;16.482;2024-02-23T10:14:31;98452.28;;;8.42;100.00
35519;BME280;21627;48.216;16.482;2024-02-23T10:16:58;98438.53;;;8.41;100.00
35519;BME280;21627;48.216;16.482;2024-02-23T10:19:26;98429.97;;;8.36;100.00
35519;BME280;21627;48.216;16.482;2024-02-23T10:21:56;98422.31;;;8.32;100.00
35519;BME280;21627;48.216;16.482;2024-02-23T10:24:23;98438.56;;;8.37;100.00
35519;BME280;21627;48.216;16.482;2024-02-23T10:26:54;98429.06;;;8.39;100.00
35519;BME280;21627;48.216;16.482;2024-02-23T10:29:23;98432.47;;;8.47;100.00
35519;BME280;21627;48.216;16.482;2024-02-23T10:31:51;98406.66;;;8.50;100.00
35519;BME280;21627;48.216;16.482;2024-02-23T10:34:20;98416.84;;;8.59;100.00
35519;BME280;21627;48.216;16.482;2024-02-23T10:36:47;98416.84;;;8.58;100.00
35519;BME280;21627;48.216;16.482;2024-02-23T10:39:18;98412.56;;;8.58;100.00
35519;BME280;21627;48.216;16.482;2024-02-23T10:42:02;98405.66;;;8.59;100.00
35519;BME280;21627;48.216;16.482;2024-02-23T10:44:31;98415.03;;;8.66;100.00
35519;BME280;21627;48.216;16.482;2024-02-23T10:46:59;98405.59;;;8.63;100.00
35519;BME280;21627;48.216;16.482;2024-02-23T10:49:28;98402.09;;;8.69;100.00
35519;BME280;21627;48.216;16.482;2024-02-23T10:51:55;98389.13;;;8.74;100.00
35519;BME280;21627;48.216;16.482;2024-02-23T10:54:23;98395.13;;;8.77;100.00
35519;BME280;21627;48.216;16.482;2024-02-23T10:56:51;98378.00;;;8.72;100.00
35519;BME280;21627;48.216;16.482;2024-02-23T10:59:18;98383.09;;;8.78;100.00
35519;BME280;21627;48.216;16.482;2024-02-23T11:01:49;98381.16;;;8.92;100.00
35519;BME280;21627;48.216;16.482;2024-02-23T11:04:17;98393.03;;;9.01;100.00
35519;BME280;21627;48.216;16.482;2024-02-23T11:06:52;98376.75;;;8.99;100.00
35519;BME280;21627;48.216;16.482;2024-02-23T11:09:26;98390.44;;;9.02;100.00
35519;BME280;21627;48.216;16.482;2024-02-23T11:11:56;98384.41;;;9.05;100.00
35519;BME280;21627;48.216;16.482;2024-02-23T11:14:35;98380.03;;;9.08;100.00
35519;BME280;21627;48.216;16.482;2024-02-23T11:17:04;98381.69;;;9.11;100.00
35519;BME280;21627;48.216;16.482;2024-02-23T11:19:39;98373.13;;;9.09;100.00
35519;BME280;21627;48.216;16.482;2024-02-23T11:22:10;98374.81;;;9.12;100.00
35519;BME280;21627;48.216;16.482;2024-02-23T11:24:49;98376.47;;;9.16;100.00
35519;BME280;21627;48.216;16.482;2024-02-23T11:27:24;98380.97;;;9.03;100.00
35519;BME280;21627;48.216;16.482;2024-02-23T11:30:03;98375.91;;;8.97;100.00
35519;BME280;21627;48.216;16.482;2024-02-23T11:32:45;98393.09;;;8.98;100.00
35519;BME280;21627;48.216;16.482;2024-02-23T11:35:16;98393.09;;;8.96;100.00
35519;BME280;21627;48.216;16.482;2024-02-23T11:37:53;98401.00;;;8.84;100.00
35519;BME280;21627;48.216;16.482;2024-02-23T11:40:32;98403.66;;;8.79;100.00
35519;BME280;21627;48.216;16.482;2024-02-23T11:43:00;98396.88;;;8.74;100.00
35519;BME280;21627;48.216;16.482;2024-02-23T11:45:31;98399.50;;;8.69;100.00
35519;BME280;21627;48.216;16.482;2024-02-23T11:47:58;98393.44;;;8.73;100.00
35519;BME280;21627;48.216;16.482;2024-02-23T11:50:27;98379.72;;;8.71;100.00
35519;BME280;21627;48.216;16.482;2024-02-23T11:52:54;98375.41;;;8.73;100.00
35519;BME280;21627;48.216;16.482;2024-02-23T11:55:22;98381.41;;;8.74;100.00
35519;BME280;21627;48.216;16.482;2024-02-23T11:57:51;98377.03;;;8.79;100.00
35519;BME280;21627;48.216;16.482;2024-02-23T12:00:32;98378.81;;;8.75;100.00
35519;BME280;21627;48.216;16.482;2024-02-23T12:02:59;98363.53;;;8.64;100.00
35519;BME280;21627;48.216;16.482;2024-02-23T12:05:27;98366.94;;;8.65;100.00
35519;BME280;21627;48.216;16.482;2024-02-23T12:07:55;98359.28;;;8.62;100.00
35519;BME280;21627;48.216;16.482;2024-02-23T12:10:23;98354.97;;;8.61;100.00
35519;BME280;21627;48.216;16.482;2024-02-23T12:12:53;98348.13;;;8.60;100.00
35519;BME280;21627;48.216;16.482;2024-02-23T12:15:21;98354.81;;;8.72;100.00
35519;BME280;21627;48.216;16.482;2024-02-23T12:17:49;98345.44;;;8.68;100.00
35519;BME280;21627;48.216;16.482;2024-02-23T12:20:17;98344.50;;;8.72;100.00
35519;BME280;21627;48.216;16.482;2024-02-23T12:22:45;98333.28;;;8.76;100.00
35519;BME280;21627;48.216;16.482;2024-02-23T12:25:12;98337.47;;;8.81;100.00
35519;BME280;21627;48.216;16.482;2024-02-23T12:27:41;98340.06;;;8.83;100.00
35519;BME280;21627;48.216;16.482;2024-02-23T12:30:15;98349.63;;;8.75;100.00
35519;BME280;21627;48.216;16.482;2024-02-23T12:32:45;98347.91;;;8.75;100.00
35519;BME280;21627;48.216;16.482;2024-02-23T12:35:14;98326.44;;;8.73;100.00
35519;BME280;21627;48.216;16.482;2024-02-23T12:37:44;98315.34;;;8.70;100.00
35519;BME280;21627;48.216;16.482;2024-02-23T12:40:12;98305.06;;;8.66;100.00
35519;BME280;21627;48.216;16.482;2024-02-23T12:42:40;98315.44;;;8.63;100.00
35519;BME280;21627;48.216;16.482;2024-02-23T12:45:08;98311.22;;;8.59;100.00
35519;BME280;21627;48.216;16.482;2024-02-23T12:47:35;98308.78;;;8.50;100.00
35519;BME280;21627;48.216;16.482;2024-02-23T12:50:03;98302.78;;;8.47;100.00
35519;BME280;21627;48.216;16.482;2024-02-23T12:52:30;98295.19;;;8.40;100.00
35519;BME280;21627;48.216;16.482;2024-02-23T12:54:58;98306.34;;;8.36;100.00
35519;BME280;21627;48.216;16.482;2024-02-23T12:57:25;98314.97;;;8.35;100.00